createdAt,value
2023-03-23T16:00:42.393Z,16.13
2023-03-23T16:03:50.355Z,16.08
2023-03-23T16:06:56.891Z,16.07
2023-03-23T16:10:03.558Z,16.04
2023-03-23T16:13:07.145Z,16.02
2023-03-23T16:16:18.073Z,15.99
2023-03-23T16:19:24.538Z,15.88
2023-03-23T16:22:27.673Z,15.87
2023-03-23T16:25:31.478Z,15.86
2023-03-23T16:28:36.427Z,15.86
2023-03-23T16:31:41.115Z,15.88
2023-03-23T16:34:44.282Z,15.86
2023-03-23T16:37:50.397Z,15.81
2023-03-23T16:40:55.936Z,15.79
2023-03-23T16:43:59.021Z,15.70
2023-03-23T16:47:03.316Z,15.66
2023-03-23T16:50:11.640Z,15.61
2023-03-23T16:53:16.700Z,15.59
2023-03-23T16:56:22.698Z,15.56
2023-03-23T16:59:28.375Z,15.55
2023-03-23T17:02:33.316Z,15.42
2023-03-23T17:05:38.208Z,15.06
2023-03-23T17:08:41.220Z,14.83
2023-03-23T17:11:44.618Z,14.62
2023-03-23T17:14:48.176Z,14.35
2023-03-23T17:17:54.278Z,14.19
2023-03-23T17:20:57.493Z,14.12
2023-03-23T17:24:00.591Z,14.04
2023-03-23T17:27:31.413Z,13.97
2023-03-23T17:30:35.600Z,13.93
2023-03-23T17:33:39.958Z,13.89
2023-03-23T17:36:42.961Z,13.85
2023-03-23T17:39:47.601Z,13.73
2023-03-23T17:42:51.492Z,13.84
2023-03-23T17:45:55.164Z,13.71
2023-03-23T17:48:59.504Z,13.67
2023-03-23T17:52:02.670Z,13.36
2023-03-23T17:55:06.791Z,13.05
2023-03-23T17:58:10.226Z,12.92
2023-03-23T18:01:13.797Z,12.91
2023-03-23T18:04:19.453Z,12.81
2023-03-23T18:07:23.888Z,12.81
2023-03-23T18:10:29.392Z,12.70
2023-03-23T18:13:35.070Z,12.76
2023-03-23T18:16:38.807Z,12.78
2023-03-23T18:19:45.050Z,12.74
2023-03-23T18:22:48.351Z,12.78
2023-03-23T18:25:53.574Z,12.90
2023-03-23T18:28:56.963Z,12.95
2023-03-23T18:32:01.262Z,12.68
2023-03-23T18:35:08.349Z,12.72
2023-03-23T18:38:12.163Z,12.65
2023-03-23T18:41:16.477Z,12.42
2023-03-23T18:44:23.752Z,12.27
2023-03-23T18:47:29.422Z,12.12
2023-03-23T18:50:34.577Z,12.12
2023-03-23T18:53:38.237Z,12.03
2023-03-23T18:56:41.344Z,12.05
2023-03-23T18:59:44.808Z,12.11
2023-03-23T19:02:52.008Z,12.12
2023-03-23T19:05:59.438Z,12.17
2023-03-23T19:09:02.736Z,12.21
2023-03-23T19:12:14.190Z,12.15
2023-03-23T19:15:18.303Z,12.13
2023-03-23T19:18:21.555Z,12.10
2023-03-23T19:21:29.899Z,12.09
2023-03-23T19:24:35.275Z,12.08
2023-03-23T19:28:05.765Z,12.05
2023-03-23T19:31:04.858Z,12.04
2023-03-23T19:34:10.568Z,12.00
2023-03-23T19:37:18.038Z,12.05
2023-03-23T19:40:35.550Z,12.05
2023-03-23T19:43:43.189Z,12.12
2023-03-23T19:46:47.988Z,12.06
2023-03-23T19:49:52.963Z,12.05
2023-03-23T19:52:58.642Z,11.97
2023-03-23T19:56:05.136Z,11.95
2023-03-23T19:59:14.985Z,11.91
2023-03-23T20:02:18.059Z,11.91
2023-03-23T20:05:21.250Z,11.85
2023-03-23T20:08:26.050Z,11.82
2023-03-23T20:11:32.174Z,11.82
2023-03-23T20:14:36.892Z,11.88
2023-03-23T20:17:40.571Z,11.81
2023-03-23T20:20:43.817Z,11.82
2023-03-23T20:23:49.429Z,11.83
2023-03-23T20:26:52.381Z,11.77
2023-03-23T20:29:57.475Z,11.75
2023-03-23T20:33:03.777Z,11.81
2023-03-23T20:36:09.711Z,11.77
2023-03-23T20:39:21.282Z,11.74
2023-03-23T20:42:26.369Z,11.79
2023-03-23T20:45:29.414Z,11.75
2023-03-23T20:48:35.428Z,11.80
2023-03-23T20:51:40.037Z,11.77
2023-03-23T20:54:44.704Z,11.80
2023-03-23T20:57:47.852Z,11.75
2023-03-23T21:00:51.693Z,11.78
2023-03-23T21:03:57.013Z,11.78
2023-03-23T21:07:00.966Z,11.80
2023-03-23T21:10:05.769Z,11.80
2023-03-23T21:13:10.168Z,11.83
2023-03-23T21:16:13.682Z,11.80
2023-03-23T21:19:20.186Z,11.71
2023-03-23T21:22:23.226Z,11.70
2023-03-23T21:25:35.149Z,11.68
2023-03-23T21:28:38.650Z,11.69
2023-03-23T21:31:41.744Z,11.68
2023-03-23T21:34:47.402Z,11.68
2023-03-23T21:37:50.479Z,11.65
2023-03-23T21:40:55.214Z,11.66
2023-03-23T21:44:00.124Z,11.64
2023-03-23T21:47:05.090Z,11.55
2023-03-23T21:50:09.557Z,11.48
2023-03-23T21:53:18.248Z,11.41
2023-03-23T21:56:24.617Z,11.39
2023-03-23T21:59:29.791Z,11.27
2023-03-23T22:02:32.828Z,11.15
2023-03-23T22:05:55.653Z,11.01
2023-03-23T22:08:59.220Z,10.91
2023-03-23T22:12:04.501Z,10.80
2023-03-23T22:15:17.324Z,10.76
2023-03-23T22:18:20.462Z,10.66
2023-03-23T22:21:25.943Z,10.62
2023-03-23T22:24:29.275Z,10.56
2023-03-23T22:27:33.610Z,10.50
2023-03-23T22:30:37.004Z,10.45
2023-03-23T22:33:40.769Z,10.45
2023-03-23T22:36:43.783Z,10.39
2023-03-23T22:39:46.827Z,10.30
2023-03-23T22:42:51.504Z,10.24
2023-03-23T22:45:55.560Z,10.18
2023-03-23T22:48:58.600Z,10.19
2023-03-23T22:52:02.176Z,10.13
2023-03-23T22:55:08.460Z,10.11
2023-03-23T22:58:14.074Z,10.04
2023-03-23T23:01:21.510Z,9.98
2023-03-23T23:04:25.172Z,9.93
2023-03-23T23:07:28.415Z,9.86
2023-03-23T23:10:31.406Z,9.83
2023-03-23T23:13:37.932Z,9.79
2023-03-23T23:16:42.274Z,9.81
2023-03-23T23:19:45.291Z,9.75
2023-03-23T23:22:48.557Z,9.68
2023-03-23T23:25:52.149Z,9.69
2023-03-23T23:28:56.809Z,9.65
2023-03-23T23:32:02.420Z,9.61
2023-03-23T23:35:08.588Z,9.63
2023-03-23T23:38:12.581Z,9.64
2023-03-23T23:41:15.764Z,9.58
2023-03-23T23:44:20.021Z,9.58
2023-03-23T23:47:23.426Z,9.63
2023-03-23T23:50:27.066Z,9.58
2023-03-23T23:53:32.011Z,9.58
2023-03-23T23:56:35.010Z,9.58
2023-03-23T23:59:39.364Z,9.52
